sensor_id;sensor_type;location;lat;lon;timestamp;P1;durP1;ratioP1;P2;durP2;ratioP2
17921;SDS011;9086;50.966;3.144;2022-09-09T00:09:18;21.37;;;20.37;;
17921;SDS011;9086;50.966;3.144;2022-09-09T00:14:35;19.27;;;18.27;;
17921;SDS011;9086;50.966;3.144;2022-09-09T00:17:01;19.90;;;18.93;;
17921;SDS011;9086;50.966;3.144;2022-09-09T00:19:32;20.73;;;19.80;;
17921;SDS011;9086;50.966;3.144;2022-09-09T00:24:44;22.20;;;21.20;;
17921;SDS011;9086;50.966;3.144;2022-09-09T00:32:30;20.20;;;19.07;;
17921;SDS011;9086;50.966;3.144;2022-09-09T00:35:12;17.23;;;16.17;;
17921;SDS011;9086;50.966;3.144;2022-09-09T00:37:41;18.00;;;16.80;;
17921;SDS011;9086;50.966;3.144;2022-09-09T00:40:24;16.20;;;15.50;;
17921;SDS011;9086;50.966;3.144;2022-09-09T00:42:59;19.33;;;18.43;;
17921;SDS011;9086;50.966;3.144;2022-09-09T00:47:55;20.60;;;19.70;;
17921;SDS011;9086;50.966;3.144;2022-09-09T00:53:02;16.17;;;15.27;;
17921;SDS011;9086;50.966;3.144;2022-09-09T00:55:33;15.23;;;14.33;;
17921;SDS011;9086;50.966;3.144;2022-09-09T00:58:01;16.30;;;15.40;;
17921;SDS011;9086;50.966;3.144;2022-09-09T01:00:31;16.50;;;15.60;;
17921;SDS011;9086;50.966;3.144;2022-09-09T01:08:41;13.17;;;12.47;;
17921;SDS011;9086;50.966;3.144;2022-09-09T01:11:17;13.87;;;13.07;;
17921;SDS011;9086;50.966;3.144;2022-09-09T01:13:45;13.50;;;12.73;;
17921;SDS011;9086;50.966;3.144;2022-09-09T01:16:12;11.70;;;11.00;;
17921;SDS011;9086;50.966;3.144;2022-09-09T01:18:40;13.97;;;13.17;;
17921;SDS011;9086;50.966;3.144;2022-09-09T01:26:26;12.87;;;12.03;;
17921;SDS011;9086;50.966;3.144;2022-09-09T01:28:53;11.33;;;10.63;;
17921;SDS011;9086;50.966;3.144;2022-09-09T01:31:21;13.03;;;12.10;;
17921;SDS011;9086;50.966;3.144;2022-09-09T01:33:48;12.50;;;11.43;;
17921;SDS011;9086;50.966;3.144;2022-09-09T01:36:34;11.27;;;10.27;;
17921;SDS011;9086;50.966;3.144;2022-09-09T01:39:04;12.23;;;11.40;;
17921;SDS011;9086;50.966;3.144;2022-09-09T01:41:30;10.87;;;9.90;;
17921;SDS011;9086;50.966;3.144;2022-09-09T01:43:56;10.77;;;9.70;;
17921;SDS011;9086;50.966;3.144;2022-09-09T01:46:22;9.60;;;8.73;;
17921;SDS011;9086;50.966;3.144;2022-09-09T01:48:49;9.60;;;9.00;;
17921;SDS011;9086;50.966;3.144;2022-09-09T01:51:16;11.23;;;10.00;;
17921;SDS011;9086;50.966;3.144;2022-09-09T01:53:42;9.77;;;8.80;;
17921;SDS011;9086;50.966;3.144;2022-09-09T02:01:26;9.93;;;9.30;;
17921;SDS011;9086;50.966;3.144;2022-09-09T02:03:56;14.27;;;13.27;;
17921;SDS011;9086;50.966;3.144;2022-09-09T02:06:27;13.60;;;12.57;;
17921;SDS011;9086;50.966;3.144;2022-09-09T02:08:55;16.47;;;15.47;;
17921;SDS011;9086;50.966;3.144;2022-09-09T02:11:23;14.50;;;13.37;;
17921;SDS011;9086;50.966;3.144;2022-09-09T02:13:51;13.93;;;12.93;;
17921;SDS011;9086;50.966;3.144;2022-09-09T02:16:22;13.60;;;12.80;;
17921;SDS011;9086;50.966;3.144;2022-09-09T02:18:57;13.50;;;12.40;;
17921;SDS011;9086;50.966;3.144;2022-09-09T02:21:24;12.27;;;11.40;;
17921;SDS011;9086;50.966;3.144;2022-09-09T02:23:53;13.27;;;12.17;;
17921;SDS011;9086;50.966;3.144;2022-09-09T02:26:21;13.67;;;12.87;;
17921;SDS011;9086;50.966;3.144;2022-09-09T02:28:49;13.90;;;13.20;;
17921;SDS011;9086;50.966;3.144;2022-09-09T02:31:17;14.93;;;13.90;;
17921;SDS011;9086;50.966;3.144;2022-09-09T02:33:44;12.47;;;11.33;;
17921;SDS011;9086;50.966;3.144;2022-09-09T02:36:11;13.27;;;12.27;;
17921;SDS011;9086;50.966;3.144;2022-09-09T02:38:39;15.17;;;14.17;;
17921;SDS011;9086;50.966;3.144;2022-09-09T02:41:06;13.27;;;12.00;;
17921;SDS011;9086;50.966;3.144;2022-09-09T02:43:33;12.20;;;11.03;;
17921;SDS011;9086;50.966;3.144;2022-09-09T02:48:36;11.13;;;10.30;;
17921;SDS011;9086;50.966;3.144;2022-09-09T02:51:08;15.07;;;13.60;;
17921;SDS011;9086;50.966;3.144;2022-09-09T02:53:50;14.03;;;12.87;;
17921;SDS011;9086;50.966;3.144;2022-09-09T02:56:21;14.43;;;13.53;;
17921;SDS011;9086;50.966;3.144;2022-09-09T02:58:47;13.50;;;12.20;;
17921;SDS011;9086;50.966;3.144;2022-09-09T03:01:16;15.23;;;13.80;;
17921;SDS011;9086;50.966;3.144;2022-09-09T03:03:42;13.57;;;12.73;;
17921;SDS011;9086;50.966;3.144;2022-09-09T03:06:09;15.53;;;14.47;;
17921;SDS011;9086;50.966;3.144;2022-09-09T03:08:36;16.07;;;15.07;;
17921;SDS011;9086;50.966;3.144;2022-09-09T03:11:02;16.30;;;15.00;;
17921;SDS011;9086;50.966;3.144;2022-09-09T03:13:28;18.17;;;16.90;;
17921;SDS011;9086;50.966;3.144;2022-09-09T03:15:55;15.63;;;14.20;;
17921;SDS011;9086;50.966;3.144;2022-09-09T03:18:21;17.90;;;16.47;;
17921;SDS011;9086;50.966;3.144;2022-09-09T03:20:47;13.73;;;12.53;;
17921;SDS011;9086;50.966;3.144;2022-09-09T03:23:13;16.47;;;15.37;;
17921;SDS011;9086;50.966;3.144;2022-09-09T03:25:39;15.47;;;14.50;;
17921;SDS011;9086;50.966;3.144;2022-09-09T03:28:11;15.47;;;14.23;;
17921;SDS011;9086;50.966;3.144;2022-09-09T03:30:38;15.50;;;13.97;;
17921;SDS011;9086;50.966;3.144;2022-09-09T03:33:04;13.50;;;12.10;;
17921;SDS011;9086;50.966;3.144;2022-09-09T03:35:30;14.93;;;13.37;;
17921;SDS011;9086;50.966;3.144;2022-09-09T03:37:56;13.57;;;12.53;;
17921;SDS011;9086;50.966;3.144;2022-09-09T03:40:22;15.63;;;14.03;;
17921;SDS011;9086;50.966;3.144;2022-09-09T03:42:48;15.33;;;14.13;;
17921;SDS011;9086;50.966;3.144;2022-09-09T03:45:14;17.50;;;16.03;;
17921;SDS011;9086;50.966;3.144;2022-09-09T03:47:40;15.50;;;14.20;;
17921;SDS011;9086;50.966;3.144;2022-09-09T03:50:06;18.10;;;16.87;;
17921;SDS011;9086;50.966;3.144;2022-09-09T03:52:37;16.20;;;15.03;;
17921;SDS011;9086;50.966;3.144;2022-09-09T03:55:04;17.53;;;16.03;;
17921;SDS011;9086;50.966;3.144;2022-09-09T03:57:31;13.87;;;12.80;;
17921;SDS011;9086;50.966;3.144;2022-09-09T03:59:59;16.40;;;15.10;;
17921;SDS011;9086;50.966;3.144;2022-09-09T04:02:26;16.77;;;15.60;;
17921;SDS011;9086;50.966;3.144;2022-09-09T04:04:52;22.10;;;20.77;;
17921;SDS011;9086;50.966;3.144;2022-09-09T04:07:17;21.03;;;19.20;;
17921;SDS011;9086;50.966;3.144;2022-09-09T04:09:43;18.63;;;17.47;;
17921;SDS011;9086;50.966;3.144;2022-09-09T04:12:09;24.33;;;22.13;;
17921;SDS011;9086;50.966;3.144;2022-09-09T04:14:38;24.47;;;22.93;;
17921;SDS011;9086;50.966;3.144;2022-09-09T04:17:04;30.80;;;29.10;;
17921;SDS011;9086;50.966;3.144;2022-09-09T04:19:31;33.80;;;31.90;;
17921;SDS011;9086;50.966;3.144;2022-09-09T04:21:57;38.27;;;35.93;;
17921;SDS011;9086;50.966;3.144;2022-09-09T04:24:24;36.53;;;33.93;;
17921;SDS011;9086;50.966;3.144;2022-09-09T04:26:54;42.03;;;39.87;;
17921;SDS011;9086;50.966;3.144;2022-09-09T04:29:20;38.80;;;36.90;;
17921;SDS011;9086;50.966;3.144;2022-09-09T04:31:46;42.07;;;39.67;;
17921;SDS011;9086;50.966;3.144;2022-09-09T04:34:12;51.57;;;49.07;;
17921;SDS011;9086;50.966;3.144;2022-09-09T04:36:38;52.97;;;50.43;;
17921;SDS011;9086;50.966;3.144;2022-09-09T04:39:05;51.87;;;49.43;;
17921;SDS011;9086;50.966;3.144;2022-09-09T04:41:31;57.43;;;54.60;;
17921;SDS011;9086;50.966;3.144;2022-09-09T04:43:57;50.53;;;48.33;;
17921;SDS011;9086;50.966;3.144;2022-09-09T04:46:24;53.63;;;51.00;;
17921;SDS011;9086;50.966;3.144;2022-09-09T04:48:51;65.57;;;62.67;;
17921;SDS011;9086;50.966;3.144;2022-09-09T04:51:17;70.07;;;66.80;;
17921;SDS011;9086;50.966;3.144;2022-09-09T04:53:43;83.70;;;80.17;;
17921;SDS011;9086;50.966;3.144;2022-09-09T04:56:12;86.57;;;82.97;;
17921;SDS011;9086;50.966;3.144;2022-09-09T04:58:39;102.53;;;98.43;;
17921;SDS011;9086;50.966;3.144;2022-09-09T05:01:08;99.73;;;95.60;;
17921;SDS011;9086;50.966;3.144;2022-09-09T05:03:34;104.07;;;99.73;;
17921;SDS011;9086;50.966;3.144;2022-09-09T05:06:07;117.43;;;112.90;;
17921;SDS011;9086;50.966;3.144;2022-09-09T05:08:35;124.37;;;119.67;;
17921;SDS011;9086;50.966;3.144;2022-09-09T05:11:01;140.43;;;135.30;;
17921;SDS011;9086;50.966;3.144;2022-09-09T05:13:28;159.93;;;154.33;;
17921;SDS011;9086;50.966;3.144;2022-09-09T05:15:56;169.47;;;163.57;;
17921;SDS011;9086;50.966;3.144;2022-09-09T05:18:22;183.83;;;177.07;;
17921;SDS011;9086;50.966;3.144;2022-09-09T05:20:48;190.70;;;184.43;;
17921;SDS011;9086;50.966;3.144;2022-09-09T05:23:15;197.03;;;190.23;;
17921;SDS011;9086;50.966;3.144;2022-09-09T05:25:42;215.10;;;207.73;;
17921;SDS011;9086;50.966;3.144;2022-09-09T05:28:08;219.97;;;212.73;;
17921;SDS011;9086;50.966;3.144;2022-09-09T05:30:34;233.17;;;225.33;;
17921;SDS011;9086;50.966;3.144;2022-09-09T05:33:00;256.80;;;248.30;;
17921;SDS011;9086;50.966;3.144;2022-09-09T05:35:26;266.17;;;257.67;;
17921;SDS011;9086;50.966;3.144;2022-09-09T05:37:52;271.97;;;263.30;;
17921;SDS011;9086;50.966;3.144;2022-09-09T05:40:18;289.67;;;280.30;;
17921;SDS011;9086;50.966;3.144;2022-09-09T05:42:46;294.43;;;284.93;;
17921;SDS011;9086;50.966;3.144;2022-09-09T05:45:12;291.93;;;282.70;;
17921;SDS011;9086;50.966;3.144;2022-09-09T05:47:38;281.67;;;272.60;;
17921;SDS011;9086;50.966;3.144;2022-09-09T05:50:04;273.70;;;264.97;;
17921;SDS011;9086;50.966;3.144;2022-09-09T05:52:30;295.43;;;285.93;;
17921;SDS011;9086;50.966;3.144;2022-09-09T05:54:57;282.40;;;273.40;;
17921;SDS011;9086;50.966;3.144;2022-09-09T05:57:24;290.00;;;280.40;;
17921;SDS011;9086;50.966;3.144;2022-09-09T05:59:53;293.47;;;284.00;;
17921;SDS011;9086;50.966;3.144;2022-09-09T06:02:19;276.97;;;267.73;;
17921;SDS011;9086;50.966;3.144;2022-09-09T06:04:45;264.67;;;256.13;;
17921;SDS011;9086;50.966;3.144;2022-09-09T06:07:11;272.63;;;263.97;;
17921;SDS011;9086;50.966;3.144;2022-09-09T06:09:39;274.40;;;265.60;;
17921;SDS011;9086;50.966;3.144;2022-09-09T06:12:05;278.10;;;268.93;;
17921;SDS011;9086;50.966;3.144;2022-09-09T06:14:31;290.27;;;281.23;;
17921;SDS011;9086;50.966;3.144;2022-09-09T06:16:57;269.87;;;260.97;;
17921;SDS011;9086;50.966;3.144;2022-09-09T06:19:23;285.53;;;276.53;;
17921;SDS011;9086;50.966;3.144;2022-09-09T06:21:51;296.63;;;287.20;;
17921;SDS011;9086;50.966;3.144;2022-09-09T06:24:17;315.13;;;305.03;;
17921;SDS011;9086;50.966;3.144;2022-09-09T06:26:44;311.83;;;301.93;;
17921;SDS011;9086;50.966;3.144;2022-09-09T06:29:10;319.03;;;308.63;;
17921;SDS011;9086;50.966;3.144;2022-09-09T06:31:36;344.83;;;333.97;;
17921;SDS011;9086;50.966;3.144;2022-09-09T06:34:06;334.10;;;323.67;;
17921;SDS011;9086;50.966;3.144;2022-09-09T06:36:34;339.90;;;328.77;;
17921;SDS011;9086;50.966;3.144;2022-09-09T06:39:01;348.63;;;337.23;;
17921;SDS011;9086;50.966;3.144;2022-09-09T06:41:28;357.97;;;346.13;;
17921;SDS011;9086;50.966;3.144;2022-09-09T06:43:54;359.20;;;347.70;;
17921;SDS011;9086;50.966;3.144;2022-09-09T06:46:21;381.90;;;369.50;;
17921;SDS011;9086;50.966;3.144;2022-09-09T06:48:47;403.33;;;390.20;;
17921;SDS011;9086;50.966;3.144;2022-09-09T06:51:17;418.87;;;404.93;;
17921;SDS011;9086;50.966;3.144;2022-09-09T06:53:44;444.43;;;429.43;;
17921;SDS011;9086;50.966;3.144;2022-09-09T06:58:37;439.60;;;424.60;;
17921;SDS011;9086;50.966;3.144;2022-09-09T07:01:08;441.93;;;426.90;;
17921;SDS011;9086;50.966;3.144;2022-09-09T07:03:34;452.97;;;437.57;;
17921;SDS011;9086;50.966;3.144;2022-09-09T07:06:00;456.53;;;441.23;;
17921;SDS011;9086;50.966;3.144;2022-09-09T07:08:26;482.83;;;466.33;;
17921;SDS011;9086;50.966;3.144;2022-09-09T07:10:53;485.37;;;467.87;;
17921;SDS011;9086;50.966;3.144;2022-09-09T07:13:28;496.63;;;479.03;;
17921;SDS011;9086;50.966;3.144;2022-09-09T07:15:54;519.70;;;500.97;;
17921;SDS011;9086;50.966;3.144;2022-09-09T07:18:20;525.07;;;505.77;;
17921;SDS011;9086;50.966;3.144;2022-09-09T07:20:52;518.30;;;499.57;;
17921;SDS011;9086;50.966;3.144;2022-09-09T07:23:23;540.43;;;519.53;;
17921;SDS011;9086;50.966;3.144;2022-09-09T07:25:49;551.30;;;529.93;;
17921;SDS011;9086;50.966;3.144;2022-09-09T07:28:15;557.63;;;536.60;;
17921;SDS011;9086;50.966;3.144;2022-09-09T07:30:42;551.47;;;530.33;;
17921;SDS011;9086;50.966;3.144;2022-09-09T07:33:08;568.83;;;546.73;;
17921;SDS011;9086;50.966;3.144;2022-09-09T07:35:35;564.80;;;543.10;;
17921;SDS011;9086;50.966;3.144;2022-09-09T07:38:02;574.80;;;552.23;;
17921;SDS011;9086;50.966;3.144;2022-09-09T07:40:31;554.53;;;533.57;;
17921;SDS011;9086;50.966;3.144;2022-09-09T07:42:57;571.40;;;549.07;;
17921;SDS011;9086;50.966;3.144;2022-09-09T07:45:24;578.33;;;555.90;;
17921;SDS011;9086;50.966;3.144;2022-09-09T07:47:50;601.93;;;578.43;;
17921;SDS011;9086;50.966;3.144;2022-09-09T07:50:17;601.80;;;578.13;;
17921;SDS011;9086;50.966;3.144;2022-09-09T07:52:44;614.67;;;590.00;;
17921;SDS011;9086;50.966;3.144;2022-09-09T07:55:10;623.20;;;598.93;;
17921;SDS011;9086;50.966;3.144;2022-09-09T07:57:36;624.30;;;599.17;;
17921;SDS011;9086;50.966;3.144;2022-09-09T08:00:03;629.60;;;604.47;;
17921;SDS011;9086;50.966;3.144;2022-09-09T08:02:29;656.53;;;629.93;;
17921;SDS011;9086;50.966;3.144;2022-09-09T08:04:55;649.43;;;623.23;;
17921;SDS011;9086;50.966;3.144;2022-09-09T08:07:22;645.87;;;619.47;;
17921;SDS011;9086;50.966;3.144;2022-09-09T08:09:49;664.60;;;637.73;;
17921;SDS011;9086;50.966;3.144;2022-09-09T08:12:15;647.97;;;621.97;;
17921;SDS011;9086;50.966;3.144;2022-09-09T08:14:41;660.20;;;633.53;;
17921;SDS011;9086;50.966;3.144;2022-09-09T08:17:07;672.00;;;644.73;;
17921;SDS011;9086;50.966;3.144;2022-09-09T08:19:33;659.03;;;632.37;;
17921;SDS011;9086;50.966;3.144;2022-09-09T08:22:00;683.37;;;655.87;;
17921;SDS011;9086;50.966;3.144;2022-09-09T08:24:27;689.63;;;661.40;;
17921;SDS011;9086;50.966;3.144;2022-09-09T08:26:54;647.83;;;621.27;;
17921;SDS011;9086;50.966;3.144;2022-09-09T08:29:21;691.77;;;663.33;;
17921;SDS011;9086;50.966;3.144;2022-09-09T08:31:51;679.73;;;651.60;;
17921;SDS011;9086;50.966;3.144;2022-09-09T08:34:19;716.90;;;687.40;;
17921;SDS011;9086;50.966;3.144;2022-09-09T08:36:45;681.60;;;653.13;;
17921;SDS011;9086;50.966;3.144;2022-09-09T08:39:12;690.40;;;661.97;;
17921;SDS011;9086;50.966;3.144;2022-09-09T08:52:15;687.93;;;659.53;;
17921;SDS011;9086;50.966;3.144;2022-09-09T08:54:43;677.83;;;649.93;;
17921;SDS011;9086;50.966;3.144;2022-09-09T08:57:14;677.73;;;650.17;;
17921;SDS011;9086;50.966;3.144;2022-09-09T08:59:43;676.17;;;648.53;;
17921;SDS011;9086;50.966;3.144;2022-09-09T09:02:53;679.53;;;651.73;;
17921;SDS011;9086;50.966;3.144;2022-09-09T09:05:09;654.97;;;628.97;;
17921;SDS011;9086;50.966;3.144;2022-09-09T09:10:29;613.90;;;590.67;;
17921;SDS011;9086;50.966;3.144;2022-09-09T09:12:57;582.10;;;560.60;;
17921;SDS011;9086;50.966;3.144;2022-09-09T09:15:27;538.87;;;519.67;;
17921;SDS011;9086;50.966;3.144;2022-09-09T09:17:55;536.60;;;517.57;;
17921;SDS011;9086;50.966;3.144;2022-09-09T09:20:29;524.00;;;505.57;;
17921;SDS011;9086;50.966;3.144;2022-09-09T09:22:55;492.53;;;475.13;;
17921;SDS011;9086;50.966;3.144;2022-09-09T09:25:33;490.03;;;473.23;;
17921;SDS011;9086;50.966;3.144;2022-09-09T09:28:07;469.40;;;453.43;;
17921;SDS011;9086;50.966;3.144;2022-09-09T09:30:38;458.80;;;443.37;;
17921;SDS011;9086;50.966;3.144;2022-09-09T09:33:10;441.77;;;427.03;;
17921;SDS011;9086;50.966;3.144;2022-09-09T09:35:39;445.33;;;430.63;;
17921;SDS011;9086;50.966;3.144;2022-09-09T09:38:21;445.40;;;430.53;;
17921;SDS011;9086;50.966;3.144;2022-09-09T09:40:58;463.60;;;447.97;;
17921;SDS011;9086;50.966;3.144;2022-09-09T09:43:29;445.67;;;430.93;;
17921;SDS011;9086;50.966;3.144;2022-09-09T09:45:55;414.23;;;400.63;;
17921;SDS011;9086;50.966;3.144;2022-09-09T09:48:22;415.27;;;401.77;;
17921;SDS011;9086;50.966;3.144;2022-09-09T09:53:27;453.60;;;438.63;;
17921;SDS011;9086;50.966;3.144;2022-09-09T09:55:55;404.13;;;391.27;;
17921;SDS011;9086;50.966;3.144;2022-09-09T09:58:22;371.30;;;359.73;;
17921;SDS011;9086;50.966;3.144;2022-09-09T10:00:49;356.30;;;345.33;;
17921;SDS011;9086;50.966;3.144;2022-09-09T10:05:51;321.33;;;311.63;;
17921;SDS011;9086;50.966;3.144;2022-09-09T10:08:18;295.40;;;286.50;;
17921;SDS011;9086;50.966;3.144;2022-09-09T10:16:02;301.57;;;292.43;;
17921;SDS011;9086;50.966;3.144;2022-09-09T10:21:00;337.97;;;327.77;;
17921;SDS011;9086;50.966;3.144;2022-09-09T10:23:52;333.93;;;323.43;;
17921;SDS011;9086;50.966;3.144;2022-09-09T10:26:32;271.23;;;263.03;;
17921;SDS011;9086;50.966;3.144;2022-09-09T10:32:04;247.77;;;240.13;;
17921;SDS011;9086;50.966;3.144;2022-09-09T10:34:36;265.33;;;257.23;;
17921;SDS011;9086;50.966;3.144;2022-09-09T10:37:11;247.30;;;239.60;;
17921;SDS011;9086;50.966;3.144;2022-09-09T10:39:40;234.13;;;226.90;;
17921;SDS011;9086;50.966;3.144;2022-09-09T10:42:07;229.33;;;222.10;;
17921;SDS011;9086;50.966;3.144;2022-09-09T10:47:20;176.03;;;170.27;;
17921;SDS011;9086;50.966;3.144;2022-09-09T10:50:12;171.73;;;166.13;;
17921;SDS011;9086;50.966;3.144;2022-09-09T10:55:20;154.03;;;148.97;;
17921;SDS011;9086;50.966;3.144;2022-09-09T10:57:51;133.77;;;129.17;;
17921;SDS011;9086;50.966;3.144;2022-09-09T11:00:38;99.60;;;96.27;;
17921;SDS011;9086;50.966;3.144;2022-09-09T11:03:05;105.33;;;101.57;;
17921;SDS011;9086;50.966;3.144;2022-09-09T11:08:01;85.50;;;82.30;;
17921;SDS011;9086;50.966;3.144;2022-09-09T11:12:56;74.03;;;71.43;;
17921;SDS011;9086;50.966;3.144;2022-09-09T11:15:31;79.03;;;76.13;;
17921;SDS011;9086;50.966;3.144;2022-09-09T11:17:59;76.73;;;74.10;;
17921;SDS011;9086;50.966;3.144;2022-09-09T11:20:27;79.57;;;76.67;;
17921;SDS011;9086;50.966;3.144;2022-09-09T11:22:55;77.13;;;74.23;;
17921;SDS011;9086;50.966;3.144;2022-09-09T11:25:26;87.27;;;84.13;;
17921;SDS011;9086;50.966;3.144;2022-09-09T11:28:02;97.30;;;94.00;;
17921;SDS011;9086;50.966;3.144;2022-09-09T11:30:43;58.47;;;56.27;;
17921;SDS011;9086;50.966;3.144;2022-09-09T11:33:20;40.93;;;39.10;;
17921;SDS011;9086;50.966;3.144;2022-09-09T11:35:59;30.77;;;29.53;;
17921;SDS011;9086;50.966;3.144;2022-09-09T11:38:28;25.33;;;24.20;;
17921;SDS011;9086;50.966;3.144;2022-09-09T11:40:56;33.50;;;31.73;;
17921;SDS011;9086;50.966;3.144;2022-09-09T11:43:25;38.13;;;36.17;;
17921;SDS011;9086;50.966;3.144;2022-09-09T11:45:53;38.83;;;37.13;;
17921;SDS011;9086;50.966;3.144;2022-09-09T11:48:25;32.03;;;30.50;;
17921;SDS011;9086;50.966;3.144;2022-09-09T11:51:06;30.33;;;29.03;;
17921;SDS011;9086;50.966;3.144;2022-09-09T11:53:32;34.23;;;32.60;;
17921;SDS011;9086;50.966;3.144;2022-09-09T11:58:29;30.13;;;28.63;;
17921;SDS011;9086;50.966;3.144;2022-09-09T12:00:57;39.70;;;38.10;;
17921;SDS011;9086;50.966;3.144;2022-09-09T12:03:39;42.60;;;40.40;;
17921;SDS011;9086;50.966;3.144;2022-09-09T12:08:43;75.40;;;72.57;;
17921;SDS011;9086;50.966;3.144;2022-09-09T12:11:10;111.30;;;106.97;;
17921;SDS011;9086;50.966;3.144;2022-09-09T12:13:37;129.43;;;124.63;;
17921;SDS011;9086;50.966;3.144;2022-09-09T12:16:03;151.70;;;146.53;;
17921;SDS011;9086;50.966;3.144;2022-09-09T12:18:37;156.40;;;151.20;;
17921;SDS011;9086;50.966;3.144;2022-09-09T12:23:40;182.63;;;176.73;;
17921;SDS011;9086;50.966;3.144;2022-09-09T12:26:19;205.47;;;198.97;;
17921;SDS011;9086;50.966;3.144;2022-09-09T12:34:09;311.57;;;301.80;;
17921;SDS011;9086;50.966;3.144;2022-09-09T12:36:36;313.87;;;304.10;;
17921;SDS011;9086;50.966;3.144;2022-09-09T12:39:10;323.47;;;313.50;;
17921;SDS011;9086;50.966;3.144;2022-09-09T12:41:36;322.10;;;312.13;;
17921;SDS011;9086;50.966;3.144;2022-09-09T12:44:06;330.03;;;319.50;;
17921;SDS011;9086;50.966;3.144;2022-09-09T12:46:34;319.43;;;309.37;;
17921;SDS011;9086;50.966;3.144;2022-09-09T12:49:02;277.10;;;268.37;;
17921;SDS011;9086;50.966;3.144;2022-09-09T12:51:29;282.50;;;273.70;;
17921;SDS011;9086;50.966;3.144;2022-09-09T12:53:58;258.83;;;250.80;;
17921;SDS011;9086;50.966;3.144;2022-09-09T12:56:28;238.07;;;230.77;;
17921;SDS011;9086;50.966;3.144;2022-09-09T12:58:56;231.47;;;224.27;;
17921;SDS011;9086;50.966;3.144;2022-09-09T13:03:49;223.50;;;216.33;;
17921;SDS011;9086;50.966;3.144;2022-09-09T13:06:36;272.17;;;263.90;;
17921;SDS011;9086;50.966;3.144;2022-09-09T13:09:01;227.70;;;220.70;;
17921;SDS011;9086;50.966;3.144;2022-09-09T13:13:57;180.83;;;174.80;;
17921;SDS011;9086;50.966;3.144;2022-09-09T13:16:30;171.30;;;165.80;;
17921;SDS011;9086;50.966;3.144;2022-09-09T13:19:00;166.37;;;160.80;;
17921;SDS011;9086;50.966;3.144;2022-09-09T13:21:31;154.03;;;148.60;;
17921;SDS011;9086;50.966;3.144;2022-09-09T13:23:57;134.68;;;129.85;;
17921;SDS011;9086;50.966;3.144;2022-09-09T13:26:28;132.93;;;128.32;;
17921;SDS011;9086;50.966;3.144;2022-09-09T13:28:55;114.22;;;110.30;;
17921;SDS011;9086;50.966;3.144;2022-09-09T13:31:33;111.13;;;107.07;;
17921;SDS011;9086;50.966;3.144;2022-09-09T13:33:59;114.97;;;110.85;;
17921;SDS011;9086;50.966;3.144;2022-09-09T13:36:35;143.15;;;138.32;;
17921;SDS011;9086;50.966;3.144;2022-09-09T13:39:02;122.35;;;118.22;;
17921;SDS011;9086;50.966;3.144;2022-09-09T13:41:30;74.05;;;71.40;;
17921;SDS011;9086;50.966;3.144;2022-09-09T13:43:57;48.00;;;46.20;;
17921;SDS011;9086;50.966;3.144;2022-09-09T13:46:25;34.40;;;32.97;;
17921;SDS011;9086;50.966;3.144;2022-09-09T13:48:55;26.33;;;25.00;;
17921;SDS011;9086;50.966;3.144;2022-09-09T13:51:26;18.85;;;17.85;;
17921;SDS011;9086;50.966;3.144;2022-09-09T13:53:54;8.60;;;8.10;;
17921;SDS011;9086;50.966;3.144;2022-09-09T13:56:20;6.18;;;5.63;;
17921;SDS011;9086;50.966;3.144;2022-09-09T13:58:46;5.13;;;4.93;;
17921;SDS011;9086;50.966;3.144;2022-09-09T14:01:12;4.80;;;4.00;;
17921;SDS011;9086;50.966;3.144;2022-09-09T14:03:38;4.97;;;4.60;;
17921;SDS011;9086;50.966;3.144;2022-09-09T14:06:05;4.60;;;4.20;;
17921;SDS011;9086;50.966;3.144;2022-09-09T14:08:34;3.58;;;3.22;;
17921;SDS011;9086;50.966;3.144;2022-09-09T14:11:02;4.15;;;2.22;;
17921;SDS011;9086;50.966;3.144;2022-09-09T14:13:29;2.53;;;2.17;;
17921;SDS011;9086;50.966;3.144;2022-09-09T14:15:55;2.72;;;1.42;;
17921;SDS011;9086;50.966;3.144;2022-09-09T14:18:21;3.00;;;1.30;;
17921;SDS011;9086;50.966;3.144;2022-09-09T14:20:48;3.08;;;1.20;;
17921;SDS011;9086;50.966;3.144;2022-09-09T14:23:15;1.70;;;0.90;;
17921;SDS011;9086;50.966;3.144;2022-09-09T14:25:44;1.70;;;1.13;;
17921;SDS011;9086;50.966;3.144;2022-09-09T14:28:12;2.80;;;1.15;;
17921;SDS011;9086;50.966;3.144;2022-09-09T14:30:39;1.52;;;1.05;;
17921;SDS011;9086;50.966;3.144;2022-09-09T14:33:06;1.95;;;1.17;;
17921;SDS011;9086;50.966;3.144;2022-09-09T14:35:32;1.98;;;1.10;;
17921;SDS011;9086;50.966;3.144;2022-09-09T14:37:58;3.10;;;1.30;;
17921;SDS011;9086;50.966;3.144;2022-09-09T14:40:25;4.85;;;1.60;;
17921;SDS011;9086;50.966;3.144;2022-09-09T14:42:52;2.80;;;1.40;;
17921;SDS011;9086;50.966;3.144;2022-09-09T14:45:18;1.67;;;1.17;;
17921;SDS011;9086;50.966;3.144;2022-09-09T14:47:46;2.20;;;1.10;;
17921;SDS011;9086;50.966;3.144;2022-09-09T14:50:12;2.80;;;1.45;;
17921;SDS011;9086;50.966;3.144;2022-09-09T14:52:38;1.60;;;1.13;;
17921;SDS011;9086;50.966;3.144;2022-09-09T14:55:05;4.07;;;1.30;;
17921;SDS011;9086;50.966;3.144;2022-09-09T14:57:31;2.47;;;1.30;;
17921;SDS011;9086;50.966;3.144;2022-09-09T14:59:57;2.58;;;1.20;;
17921;SDS011;9086;50.966;3.144;2022-09-09T15:02:23;5.05;;;1.50;;
17921;SDS011;9086;50.966;3.144;2022-09-09T15:04:49;1.40;;;1.30;;
17921;SDS011;9086;50.966;3.144;2022-09-09T15:07:15;2.42;;;1.45;;
17921;SDS011;9086;50.966;3.144;2022-09-09T15:09:44;2.83;;;1.60;;
17921;SDS011;9086;50.966;3.144;2022-09-09T15:12:12;2.35;;;1.48;;
17921;SDS011;9086;50.966;3.144;2022-09-09T15:14:39;2.72;;;1.95;;
17921;SDS011;9086;50.966;3.144;2022-09-09T15:17:05;2.03;;;1.80;;
17921;SDS011;9086;50.966;3.144;2022-09-09T15:19:31;3.10;;;2.30;;
17921;SDS011;9086;50.966;3.144;2022-09-09T15:21:57;5.43;;;2.63;;
17921;SDS011;9086;50.966;3.144;2022-09-09T15:24:24;3.42;;;2.78;;
17921;SDS011;9086;50.966;3.144;2022-09-09T15:26:51;3.92;;;2.60;;
17921;SDS011;9086;50.966;3.144;2022-09-09T15:29:18;4.07;;;2.90;;
17921;SDS011;9086;50.966;3.144;2022-09-09T15:31:44;5.60;;;3.05;;
17921;SDS011;9086;50.966;3.144;2022-09-09T15:34:11;4.03;;;2.70;;
17921;SDS011;9086;50.966;3.144;2022-09-09T15:36:42;4.55;;;3.03;;
17921;SDS011;9086;50.966;3.144;2022-09-09T15:39:10;4.15;;;2.83;;
17921;SDS011;9086;50.966;3.144;2022-09-09T15:41:41;3.88;;;3.00;;
17921;SDS011;9086;50.966;3.144;2022-09-09T15:44:07;4.50;;;2.60;;
17921;SDS011;9086;50.966;3.144;2022-09-09T15:46:36;7.90;;;2.90;;
17921;SDS011;9086;50.966;3.144;2022-09-09T15:51:33;4.55;;;2.58;;
17921;SDS011;9086;50.966;3.144;2022-09-09T15:53:59;5.05;;;2.58;;
17921;SDS011;9086;50.966;3.144;2022-09-09T15:56:27;5.13;;;2.45;;
17921;SDS011;9086;50.966;3.144;2022-09-09T15:58:55;5.70;;;2.22;;
17921;SDS011;9086;50.966;3.144;2022-09-09T16:01:23;3.17;;;2.10;;
17921;SDS011;9086;50.966;3.144;2022-09-09T16:03:49;4.78;;;2.30;;
17921;SDS011;9086;50.966;3.144;2022-09-09T16:06:19;2.83;;;1.70;;
17921;SDS011;9086;50.966;3.144;2022-09-09T16:08:46;3.90;;;1.88;;
17921;SDS011;9086;50.966;3.144;2022-09-09T16:11:16;5.07;;;1.80;;
17921;SDS011;9086;50.966;3.144;2022-09-09T16:13:44;5.40;;;2.00;;
17921;SDS011;9086;50.966;3.144;2022-09-09T16:16:11;3.65;;;1.50;;
17921;SDS011;9086;50.966;3.144;2022-09-09T16:18:39;5.60;;;1.67;;
17921;SDS011;9086;50.966;3.144;2022-09-09T16:21:05;5.07;;;1.20;;